createdAt,value
2019-05-01T00:02:10.178Z,7.73
2019-05-01T00:04:21.161Z,7.80
2019-05-01T00:06:26.579Z,7.37
2019-05-01T00:08:30.252Z,7.33
2019-05-01T00:10:34.040Z,7.87
2019-05-01T00:12:37.808Z,7.20
2019-05-01T00:14:41.534Z,8.07
2019-05-01T00:16:45.316Z,7.17
2019-05-01T00:18:49.047Z,7.87
2019-05-01T00:20:52.597Z,7.90
2019-05-01T00:22:56.329Z,8.10
2019-05-01T00:24:59.984Z,7.77
2019-05-01T00:27:03.630Z,8.70
2019-05-01T00:29:07.381Z,7.63
2019-05-01T00:31:11.177Z,8.60
2019-05-01T00:33:14.948Z,8.50
2019-05-01T00:35:18.612Z,8.00
2019-05-01T00:37:22.245Z,7.77
2019-05-01T00:39:26.017Z,8.90
2019-05-01T00:41:29.666Z,8.13
2019-05-01T00:43:33.298Z,8.20
2019-05-01T00:45:36.942Z,7.67
2019-05-01T00:47:40.641Z,8.00
2019-05-01T00:49:44.216Z,8.43
2019-05-01T00:51:47.870Z,8.07
2019-05-01T00:53:51.476Z,7.53
2019-05-01T00:56:02.595Z,8.40
2019-05-01T00:58:19.952Z,7.23
2019-05-01T01:00:27.896Z,7.90
2019-05-01T01:02:36.336Z,8.33
2019-05-01T01:04:39.963Z,7.80
2019-05-01T01:06:43.615Z,8.40
2019-05-01T01:08:47.292Z,8.70
2019-05-01T01:10:50.950Z,8.07
2019-05-01T01:12:54.579Z,8.87
2019-05-01T01:14:58.166Z,7.60
2019-05-01T01:17:01.903Z,7.50
2019-05-01T01:19:05.723Z,7.03
2019-05-01T01:21:09.375Z,8.07
2019-05-01T01:23:13.022Z,8.43
2019-05-01T01:25:16.662Z,8.90
2019-05-01T01:27:20.394Z,7.67
2019-05-01T01:29:24.133Z,7.37
2019-05-01T01:31:28.009Z,7.87
2019-05-01T01:33:31.706Z,7.83
2019-05-01T01:35:35.430Z,8.30
2019-05-01T01:37:39.169Z,8.83
2019-05-01T01:39:42.930Z,7.97
2019-05-01T01:41:47.026Z,8.20
2019-05-01T01:44:08.717Z,9.27
2019-05-01T01:46:16.997Z,8.17
2019-05-01T01:48:20.747Z,8.30
2019-05-01T01:50:24.551Z,8.13
2019-05-01T01:52:28.750Z,8.03
2019-05-01T01:54:32.854Z,8.30
2019-05-01T01:56:36.652Z,8.43
2019-05-01T01:58:40.386Z,8.80
2019-05-01T02:00:45.879Z,8.47
2019-05-01T02:02:51.084Z,8.90
2019-05-01T02:04:56.413Z,9.13
2019-05-01T02:07:00.151Z,8.70
2019-05-01T02:09:05.381Z,8.80
2019-05-01T02:11:09.206Z,8.60
2019-05-01T02:13:13.025Z,8.47
2019-05-01T02:15:17.047Z,8.33
2019-05-01T02:17:20.799Z,8.97
2019-05-01T02:19:24.499Z,9.10
2019-05-01T02:21:28.159Z,11.30
2019-05-01T02:23:31.845Z,10.33
2019-05-01T02:25:37.628Z,10.30
2019-05-01T02:27:43.387Z,10.10
2019-05-01T02:29:49.386Z,9.63
2019-05-01T02:31:54.440Z,9.10
2019-05-01T02:33:58.504Z,9.57
2019-05-01T02:36:03.506Z,10.17
2019-05-01T02:38:08.516Z,9.60
2019-05-01T02:40:37.827Z,8.70
2019-05-01T02:42:42.559Z,10.67
2019-05-01T02:44:49.249Z,8.60
2019-05-01T02:46:55.922Z,9.50
2019-05-01T02:49:08.575Z,10.30
2019-05-01T02:51:13.227Z,9.73
2019-05-01T02:53:18.337Z,9.33
2019-05-01T02:55:23.847Z,9.00
2019-05-01T02:57:28.449Z,8.80
2019-05-01T02:59:33.717Z,9.30
2019-05-01T03:01:47.048Z,9.60
2019-05-01T03:03:43.833Z,9.20
2019-05-01T03:05:47.668Z,8.70
2019-05-01T03:07:51.398Z,8.83
2019-05-01T03:09:55.410Z,9.03
2019-05-01T03:12:00.330Z,9.57
2019-05-01T03:14:05.362Z,10.03
2019-05-01T03:16:10.816Z,9.30
2019-05-01T03:18:16.183Z,8.63
2019-05-01T03:20:24.806Z,8.53
2019-05-01T03:22:32.880Z,9.17
2019-05-01T03:24:37.200Z,8.90
2019-05-01T03:26:41.093Z,9.00
2019-05-01T03:28:45.323Z,9.10
2019-05-01T03:30:49.334Z,9.20
2019-05-01T03:32:52.966Z,9.70
2019-05-01T03:34:57.464Z,8.53
2019-05-01T03:37:01.269Z,9.13
2019-05-01T03:39:06.253Z,8.37
2019-05-01T03:41:10.124Z,8.20
2019-05-01T03:43:13.850Z,7.90
2019-05-01T03:45:17.740Z,9.03
2019-05-01T03:47:21.733Z,8.20
2019-05-01T03:49:26.466Z,9.50
2019-05-01T03:51:30.361Z,7.70
2019-05-01T03:53:34.931Z,8.83
2019-05-01T03:55:38.787Z,9.20
2019-05-01T03:57:43.076Z,9.50
2019-05-01T03:59:46.874Z,9.20
2019-05-01T04:02:08.861Z,9.90
2019-05-01T04:04:14.148Z,10.10
2019-05-01T04:06:18.230Z,9.63
2019-05-01T04:08:21.961Z,9.40
2019-05-01T04:10:25.780Z,9.93
2019-05-01T04:12:29.572Z,9.60
2019-05-01T04:14:33.580Z,9.00
2019-05-01T04:16:37.842Z,10.10
2019-05-01T04:18:41.670Z,9.53
2019-05-01T04:20:45.826Z,9.80
2019-05-01T04:22:49.699Z,9.90
2019-05-01T04:24:53.426Z,9.70
2019-05-01T04:26:58.210Z,10.53
2019-05-01T04:29:06.841Z,10.20
2019-05-01T04:31:24.084Z,11.10
2019-05-01T04:33:28.492Z,9.80
2019-05-01T04:35:48.990Z,9.37
2019-05-01T04:37:53.232Z,8.73
2019-05-01T04:39:57.121Z,9.20
2019-05-01T04:42:00.878Z,9.30
2019-05-01T04:44:04.605Z,8.60
2019-05-01T04:46:08.430Z,9.80
2019-05-01T04:48:12.791Z,9.20
2019-05-01T04:50:16.579Z,9.80
2019-05-01T04:52:20.433Z,10.07
2019-05-01T04:54:24.266Z,9.73
2019-05-01T04:56:28.035Z,10.13
2019-05-01T04:58:31.763Z,10.73
2019-05-01T05:00:35.965Z,11.40
2019-05-01T05:02:41.339Z,10.30
2019-05-01T05:04:45.045Z,9.80
2019-05-01T05:06:48.837Z,10.27
2019-05-01T05:08:53.074Z,10.77
2019-05-01T05:10:58.541Z,10.10
2019-05-01T05:13:06.764Z,10.93
2019-05-01T05:15:12.177Z,10.40
2019-05-01T05:17:17.697Z,10.50
2019-05-01T05:19:21.513Z,10.47
2019-05-01T05:21:25.313Z,10.40
2019-05-01T05:23:29.243Z,10.67
2019-05-01T05:25:32.985Z,10.93
2019-05-01T05:27:37.253Z,10.83
2019-05-01T05:29:41.382Z,12.47
2019-05-01T05:31:45.815Z,11.60
2019-05-01T05:33:49.767Z,10.40
2019-05-01T05:35:56.493Z,11.80
2019-05-01T05:38:07.671Z,11.70
2019-05-01T05:40:11.315Z,12.80
2019-05-01T05:42:15.803Z,12.40
2019-05-01T05:44:19.612Z,11.70
2019-05-01T05:46:23.658Z,12.00
2019-05-01T05:48:27.532Z,11.83
2019-05-01T05:50:39.012Z,13.03
2019-05-01T05:52:49.646Z,13.90
2019-05-01T05:55:05.594Z,12.90
2019-05-01T05:57:25.777Z,11.60
2019-05-01T05:59:36.827Z,14.03
2019-05-01T06:02:00.458Z,13.67
2019-05-01T06:04:26.235Z,17.00
2019-05-01T06:06:39.340Z,17.53
2019-05-01T06:08:44.566Z,17.07
2019-05-01T06:11:07.744Z,16.27
2019-05-01T06:13:17.988Z,17.27
2019-05-01T06:15:23.912Z,16.33
2019-05-01T06:17:41.235Z,17.00
2019-05-01T06:19:52.256Z,19.07
2019-05-01T06:22:05.063Z,17.77
2019-05-01T06:24:08.763Z,20.00
2019-05-01T06:26:26.492Z,18.10
2019-05-01T06:28:30.779Z,21.00
2019-05-01T06:30:35.623Z,23.80
2019-05-01T06:32:40.361Z,21.00
2019-05-01T06:34:44.196Z,21.10
2019-05-01T06:36:49.757Z,20.53
2019-05-01T06:38:53.729Z,20.07
2019-05-01T06:40:59.981Z,20.00
2019-05-01T06:43:03.896Z,19.60
2019-05-01T06:45:13.105Z,20.90
2019-05-01T06:47:22.019Z,19.80
2019-05-01T06:49:46.526Z,20.93
2019-05-01T06:51:53.902Z,20.57
2019-05-01T06:53:58.171Z,23.33
2019-05-01T06:56:01.990Z,22.57
2019-05-01T06:58:05.980Z,22.03
2019-05-01T07:00:11.812Z,21.60
2019-05-01T07:02:16.446Z,20.63
2019-05-01T07:04:20.386Z,22.90
2019-05-01T07:06:31.105Z,23.20
2019-05-01T07:08:34.337Z,22.67
2019-05-01T07:10:43.755Z,23.30
2019-05-01T07:12:41.690Z,21.90
2019-05-01T07:14:47.070Z,23.73
2019-05-01T07:16:51.681Z,21.90
2019-05-01T07:18:58.407Z,24.30
2019-05-01T07:21:02.282Z,21.70
2019-05-01T07:23:06.332Z,23.37
2019-05-01T07:25:10.383Z,21.17
2019-05-01T07:27:14.266Z,22.00
2019-05-01T07:29:22.332Z,21.53
2019-05-01T07:31:30.868Z,22.60
2019-05-01T07:33:31.893Z,21.40
2019-05-01T07:35:36.768Z,20.60
2019-05-01T07:37:41.278Z,19.60
2019-05-01T07:39:49.805Z,20.07
2019-05-01T07:41:50.463Z,19.00
2019-05-01T07:43:59.596Z,19.30
2019-05-01T07:46:06.569Z,19.20
2019-05-01T07:48:10.414Z,19.23
2019-05-01T07:50:17.161Z,19.30
2019-05-01T07:52:21.590Z,19.60
2019-05-01T07:54:25.332Z,19.00
2019-05-01T07:56:30.534Z,19.07
2019-05-01T07:58:34.766Z,18.90
2019-05-01T08:01:06.488Z,18.57
2019-05-01T08:03:10.375Z,18.37
2019-05-01T08:05:14.256Z,18.60
2019-05-01T08:07:18.079Z,18.60
2019-05-01T08:09:22.210Z,17.07
2019-05-01T08:11:25.995Z,18.67
2019-05-01T08:13:30.593Z,18.97
2019-05-01T08:15:35.130Z,16.37
2019-05-01T08:17:40.460Z,17.73
2019-05-01T08:19:48.912Z,17.57
2019-05-01T08:21:56.893Z,17.90
2019-05-01T08:24:01.784Z,17.30
2019-05-01T08:26:08.776Z,16.83
2019-05-01T08:28:19.763Z,16.10
2019-05-01T08:30:31.254Z,15.90
2019-05-01T08:32:38.991Z,15.73
2019-05-01T08:34:48.771Z,16.03
2019-05-01T08:36:48.465Z,17.43
2019-05-01T08:38:52.411Z,18.00
2019-05-01T08:40:56.786Z,16.30
2019-05-01T08:43:00.694Z,17.50
2019-05-01T08:45:10.236Z,16.40
2019-05-01T08:47:34.175Z,15.63
2019-05-01T08:49:49.389Z,15.23
2019-05-01T08:51:48.204Z,13.70
2019-05-01T08:53:52.730Z,12.90
2019-05-01T08:55:57.258Z,14.30
2019-05-01T08:58:01.100Z,13.97
2019-05-01T09:00:07.124Z,14.60
2019-05-01T09:02:11.021Z,16.00
2019-05-01T09:04:14.837Z,15.60
2019-05-01T09:06:18.655Z,15.57
2019-05-01T09:08:26.978Z,14.20
2019-05-01T09:10:30.312Z,14.80
2019-05-01T09:12:34.038Z,13.97
2019-05-01T09:14:37.920Z,13.80
2019-05-01T09:16:41.898Z,16.33
2019-05-01T09:18:45.698Z,13.37
2019-05-01T09:20:51.085Z,14.07
2019-05-01T09:22:54.908Z,14.30
2019-05-01T09:24:59.884Z,12.77
2019-05-01T09:27:11.781Z,12.03
2019-05-01T09:29:17.876Z,11.30
2019-05-01T09:31:23.296Z,12.57
2019-05-01T09:33:30.916Z,13.23
2019-05-01T09:35:32.555Z,11.97
2019-05-01T09:37:36.308Z,9.90
2019-05-01T09:39:40.146Z,9.33
2019-05-01T09:41:47.335Z,9.93
2019-05-01T09:43:49.259Z,9.57
2019-05-01T09:45:52.935Z,9.87
2019-05-01T09:47:56.758Z,8.50
2019-05-01T09:50:00.488Z,10.23
2019-05-01T09:52:06.458Z,10.00
2019-05-01T09:54:20.333Z,10.10
2019-05-01T09:56:25.535Z,10.00
2019-05-01T09:58:29.228Z,10.70
2019-05-01T10:00:33.627Z,12.47
2019-05-01T10:02:37.583Z,10.93
2019-05-01T10:04:42.742Z,10.67
2019-05-01T10:06:47.721Z,10.60
2019-05-01T10:08:51.918Z,11.10
2019-05-01T10:10:59.868Z,10.90
2019-05-01T10:13:02.698Z,11.07
2019-05-01T10:15:07.942Z,10.07
2019-05-01T10:17:13.500Z,10.50
2019-05-01T10:19:17.139Z,10.10
2019-05-01T10:21:22.406Z,9.73
2019-05-01T10:23:26.295Z,10.40
2019-05-01T10:25:30.178Z,10.10
2019-05-01T10:27:38.243Z,8.77
2019-05-01T10:30:01.698Z,8.57
2019-05-01T10:32:07.287Z,10.03
2019-05-01T10:34:15.510Z,9.30
2019-05-01T10:36:35.737Z,9.80
2019-05-01T10:38:39.821Z,9.13
2019-05-01T10:40:46.469Z,9.00
2019-05-01T10:42:50.268Z,10.10
2019-05-01T10:44:54.026Z,10.20
2019-05-01T10:46:57.797Z,8.67
2019-05-01T10:49:01.650Z,7.90
2019-05-01T10:51:05.494Z,9.70
2019-05-01T10:53:09.382Z,9.80
2019-05-01T10:55:13.088Z,9.50
2019-05-01T10:57:16.937Z,10.10
2019-05-01T10:59:20.695Z,10.27
2019-05-01T11:01:26.071Z,9.27
2019-05-01T11:03:29.965Z,10.30
2019-05-01T11:05:33.688Z,9.47
2019-05-01T11:07:37.452Z,10.93
2019-05-01T11:09:41.260Z,10.13
2019-05-01T11:11:44.910Z,12.00
2019-05-01T11:13:51.012Z,9.47
2019-05-01T11:15:57.300Z,9.23
2019-05-01T11:18:01.056Z,9.30
2019-05-01T11:20:07.112Z,9.40
2019-05-01T11:22:10.896Z,8.17
2019-05-01T11:24:15.113Z,8.70
2019-05-01T11:26:20.343Z,8.83
2019-05-01T11:28:24.064Z,8.80
2019-05-01T11:30:28.461Z,9.40
2019-05-01T11:32:33.842Z,9.17
2019-05-01T11:34:41.615Z,8.20
2019-05-01T11:36:55.677Z,8.90
2019-05-01T11:39:17.466Z,8.13
2019-05-01T11:41:39.403Z,8.07
2019-05-01T11:43:43.287Z,7.60
2019-05-01T11:45:47.117Z,8.40
2019-05-01T11:47:50.846Z,7.40
2019-05-01T11:49:54.548Z,9.17
2019-05-01T11:51:58.301Z,8.67
2019-05-01T11:54:02.285Z,10.07
2019-05-01T11:56:06.344Z,8.00
2019-05-01T11:58:10.165Z,8.57
2019-05-01T12:00:16.256Z,8.30
2019-05-01T12:02:19.971Z,7.40
2019-05-01T12:04:23.796Z,7.37
2019-05-01T12:06:27.537Z,7.50
2019-05-01T12:08:31.322Z,7.97
2019-05-01T12:10:35.098Z,7.80
2019-05-01T12:12:38.834Z,7.30
2019-05-01T12:14:42.576Z,7.80
2019-05-01T12:16:53.937Z,7.40
2019-05-01T12:18:57.775Z,7.40
2019-05-01T12:21:01.497Z,7.20
2019-05-01T12:23:05.305Z,7.93
2019-05-01T12:25:09.180Z,8.60
2019-05-01T12:27:12.935Z,8.03
2019-05-01T12:29:16.702Z,8.10
2019-05-01T12:31:20.339Z,7.87
2019-05-01T12:33:23.925Z,7.63
2019-05-01T12:35:27.700Z,7.83
2019-05-01T12:37:32.959Z,7.00
2019-05-01T12:39:36.840Z,7.63
2019-05-01T12:41:42.172Z,7.47
2019-05-01T12:43:48.325Z,7.47
2019-05-01T12:45:52.453Z,7.17
2019-05-01T12:47:58.011Z,7.57
2019-05-01T12:50:01.751Z,7.30
2019-05-01T12:52:10.975Z,8.00
2019-05-01T12:54:16.292Z,7.80
2019-05-01T12:56:24.405Z,7.23
2019-05-01T12:58:28.079Z,6.93
2019-05-01T13:00:47.946Z,7.93
2019-05-01T13:02:51.686Z,8.27
2019-05-01T13:04:55.378Z,7.20
2019-05-01T13:06:59.738Z,7.37
2019-05-01T13:09:05.345Z,7.23
2019-05-01T13:11:09.243Z,7.63
2019-05-01T13:13:13.219Z,7.63
2019-05-01T13:15:17.158Z,7.20
2019-05-01T13:17:21.066Z,7.70
2019-05-01T13:19:24.914Z,6.97
2019-05-01T13:21:28.811Z,6.50
2019-05-01T13:23:32.476Z,7.30
2019-05-01T13:25:36.434Z,7.10
2019-05-01T13:27:44.489Z,7.17
2019-05-01T13:29:52.456Z,8.13
2019-05-01T13:32:03.844Z,7.47
2019-05-01T13:34:08.984Z,7.87
2019-05-01T13:36:12.683Z,7.20
2019-05-01T13:38:16.395Z,7.47
2019-05-01T13:40:20.853Z,8.00
2019-05-01T13:42:27.812Z,7.83
2019-05-01T13:44:31.717Z,8.00
2019-05-01T13:46:35.467Z,7.50
2019-05-01T13:48:39.129Z,6.67
2019-05-01T13:50:44.391Z,7.60
2019-05-01T13:52:48.124Z,7.60
2019-05-01T13:54:51.838Z,7.47
2019-05-01T13:56:56.035Z,7.70
2019-05-01T13:58:59.805Z,7.70
2019-05-01T14:01:03.668Z,7.97
2019-05-01T14:03:07.348Z,7.20
2019-05-01T14:05:11.535Z,6.63
2019-05-01T14:07:16.937Z,7.67
2019-05-01T14:09:22.553Z,7.30
2019-05-01T14:11:26.464Z,7.77
2019-05-01T14:13:30.294Z,7.70
2019-05-01T14:15:34.124Z,7.07
2019-05-01T14:17:37.970Z,6.20
2019-05-01T14:19:43.392Z,7.27
2019-05-01T14:21:48.845Z,7.53
2019-05-01T14:23:54.160Z,7.70
2019-05-01T14:25:59.566Z,6.97
2019-05-01T14:28:03.345Z,7.57
2019-05-01T14:30:09.561Z,7.80
2019-05-01T14:32:13.361Z,7.77
2019-05-01T14:34:17.249Z,7.20
2019-05-01T14:36:21.109Z,7.73
2019-05-01T14:38:26.244Z,6.90
2019-05-01T14:40:30.000Z,7.07
2019-05-01T14:42:34.122Z,7.10
2019-05-01T14:44:37.956Z,6.93
2019-05-01T14:46:41.754Z,7.30
2019-05-01T14:48:45.875Z,6.70
2019-05-01T14:50:49.804Z,6.60
2019-05-01T14:52:53.608Z,6.30
2019-05-01T14:54:57.357Z,6.73
2019-05-01T14:57:01.290Z,7.00
2019-05-01T14:59:05.112Z,7.60
2019-05-01T15:01:10.560Z,6.80
2019-05-01T15:03:14.429Z,7.50
2019-05-01T15:05:18.255Z,8.20
2019-05-01T15:07:22.183Z,8.10
2019-05-01T15:09:25.967Z,7.70
2019-05-01T15:11:31.138Z,9.13
2019-05-01T15:13:42.606Z,7.93
2019-05-01T15:15:50.765Z,8.20
2019-05-01T15:18:08.194Z,8.13
2019-05-01T15:20:12.493Z,7.03
2019-05-01T15:22:16.310Z,7.03
2019-05-01T15:24:20.143Z,6.80
2019-05-01T15:26:23.976Z,7.00
2019-05-01T15:28:27.703Z,7.13
2019-05-01T15:30:31.560Z,7.53
2019-05-01T15:32:35.408Z,6.57
2019-05-01T15:34:40.874Z,7.03
2019-05-01T15:36:45.029Z,7.10
2019-05-01T15:38:48.906Z,6.60
2019-05-01T15:41:06.473Z,6.77
2019-05-01T15:43:29.578Z,7.10
2019-05-01T15:45:33.507Z,8.77
2019-05-01T15:47:37.297Z,7.10
2019-05-01T15:49:40.950Z,7.50
2019-05-01T15:51:45.190Z,8.23
2019-05-01T15:53:48.888Z,6.47
2019-05-01T15:55:52.558Z,7.53
2019-05-01T15:57:56.519Z,7.60
2019-05-01T16:00:00.434Z,7.80
2019-05-01T16:02:04.352Z,7.97
2019-05-01T16:04:08.142Z,7.87
2019-05-01T16:06:11.951Z,7.00
2019-05-01T16:08:15.880Z,7.23
2019-05-01T16:10:21.360Z,8.10
2019-05-01T16:12:26.853Z,8.07
2019-05-01T16:14:30.817Z,7.50
2019-05-01T16:16:34.643Z,6.37
2019-05-01T16:18:38.268Z,7.10
2019-05-01T16:20:41.945Z,6.50
2019-05-01T16:22:45.606Z,6.50
2019-05-01T16:24:49.431Z,7.10
2019-05-01T16:26:53.095Z,6.77
2019-05-01T16:28:56.952Z,6.70
2019-05-01T16:31:02.254Z,7.30
2019-05-01T16:33:06.062Z,6.97
2019-05-01T16:35:09.991Z,9.47
2019-05-01T16:37:13.717Z,7.03
2019-05-01T16:39:21.849Z,6.17
2019-05-01T16:41:27.031Z,9.50
2019-05-01T16:43:30.603Z,6.33
2019-05-01T16:45:34.267Z,6.60
2019-05-01T16:47:37.871Z,6.40
2019-05-01T16:49:42.516Z,6.03
2019-05-01T16:51:46.100Z,7.20
2019-05-01T16:53:51.897Z,6.60
2019-05-01T16:55:55.659Z,6.30
2019-05-01T16:57:59.443Z,6.30
2019-05-01T17:00:05.173Z,6.13
2019-05-01T17:02:10.563Z,6.90
2019-05-01T17:04:24.804Z,6.87
2019-05-01T17:06:35.785Z,7.13
2019-05-01T17:08:46.677Z,6.90
2019-05-01T17:10:51.637Z,6.30
2019-05-01T17:12:56.743Z,6.17
2019-05-01T17:15:00.389Z,7.30
2019-05-01T17:17:05.863Z,6.30
2019-05-01T17:19:09.898Z,7.60
2019-05-01T17:21:13.866Z,7.00
2019-05-01T17:23:17.519Z,7.13
2019-05-01T17:25:21.217Z,6.93
2019-05-01T17:27:24.805Z,6.30
2019-05-01T17:29:28.555Z,6.80
2019-05-01T17:31:32.397Z,6.10
2019-05-01T17:33:36.061Z,6.50
2019-05-01T17:35:41.859Z,6.50
2019-05-01T17:37:45.145Z,6.53
2019-05-01T17:39:48.829Z,6.37
2019-05-01T17:41:52.403Z,6.43
2019-05-01T17:43:56.848Z,6.47
2019-05-01T17:46:00.804Z,7.10
2019-05-01T17:48:04.458Z,6.03
2019-05-01T17:50:08.578Z,6.70
2019-05-01T17:52:12.428Z,7.93
2019-05-01T17:54:15.987Z,6.40
2019-05-01T17:56:27.564Z,7.20
2019-05-01T17:58:25.433Z,6.90
2019-05-01T18:00:36.650Z,6.03
2019-05-01T18:02:41.952Z,6.43
2019-05-01T18:04:47.304Z,6.03
2019-05-01T18:06:52.121Z,6.57
2019-05-01T18:09:02.978Z,7.40
2019-05-01T18:11:01.227Z,6.40
2019-05-01T18:13:04.988Z,6.90
2019-05-01T18:15:08.802Z,7.53
2019-05-01T18:17:12.523Z,6.43
2019-05-01T18:19:16.315Z,7.50
2019-05-01T18:21:20.071Z,7.00
2019-05-01T18:23:42.773Z,6.00
2019-05-01T18:25:48.984Z,7.00
2019-05-01T18:28:03.126Z,7.30
2019-05-01T18:30:08.753Z,7.07
2019-05-01T18:32:14.073Z,6.90
2019-05-01T18:34:17.833Z,7.23
2019-05-01T18:36:24.551Z,7.47
2019-05-01T18:38:47.586Z,6.90
2019-05-01T18:40:56.111Z,6.73
2019-05-01T18:42:59.667Z,7.83
2019-05-01T18:45:06.245Z,7.33
2019-05-01T18:47:09.949Z,6.97
2019-05-01T18:49:13.668Z,7.73
2019-05-01T18:51:19.454Z,6.90
2019-05-01T18:53:24.449Z,7.53
2019-05-01T18:55:30.416Z,7.37
2019-05-01T18:57:35.271Z,10.50
2019-05-01T18:59:39.087Z,9.93
2019-05-01T19:01:43.845Z,9.20
2019-05-01T19:03:48.377Z,8.50
2019-05-01T19:05:52.138Z,8.23
2019-05-01T19:07:55.843Z,9.10
2019-05-01T19:09:59.498Z,9.43
2019-05-01T19:12:03.893Z,9.10
2019-05-01T19:14:08.758Z,9.43
2019-05-01T19:16:14.465Z,7.53
2019-05-01T19:18:18.510Z,8.50
2019-05-01T19:20:22.140Z,8.90
2019-05-01T19:22:25.816Z,8.40
2019-05-01T19:24:32.511Z,9.03
2019-05-01T19:26:38.237Z,8.47
2019-05-01T19:28:40.340Z,8.60
2019-05-01T19:30:44.013Z,8.30
2019-05-01T19:32:47.693Z,8.83
2019-05-01T19:34:51.351Z,9.30
2019-05-01T19:36:55.275Z,8.57
2019-05-01T19:38:58.975Z,8.20
2019-05-01T19:41:03.585Z,7.30
2019-05-01T19:43:08.624Z,7.33
2019-05-01T19:45:12.557Z,7.90
2019-05-01T19:47:17.895Z,7.83
2019-05-01T19:49:24.557Z,7.60
2019-05-01T19:51:26.939Z,7.70
2019-05-01T19:53:30.853Z,8.13
2019-05-01T19:55:34.497Z,8.47
2019-05-01T19:57:38.159Z,8.37
2019-05-01T19:59:41.836Z,7.60
2019-05-01T20:01:49.243Z,8.10
2019-05-01T20:03:52.759Z,8.87
2019-05-01T20:05:59.655Z,9.30
2019-05-01T20:08:01.607Z,8.97
2019-05-01T20:10:08.327Z,8.77
2019-05-01T20:12:12.033Z,8.73
2019-05-01T20:14:15.761Z,8.40
2019-05-01T20:16:20.596Z,9.40
2019-05-01T20:18:24.407Z,8.47
2019-05-01T20:20:28.046Z,9.33
2019-05-01T20:22:31.792Z,7.53
2019-05-01T20:24:35.519Z,6.90
2019-05-01T20:26:39.175Z,7.87
2019-05-01T20:28:42.875Z,8.10
2019-05-01T20:30:49.447Z,7.30
2019-05-01T20:32:51.936Z,8.33
2019-05-01T20:34:55.571Z,8.13
2019-05-01T20:36:59.193Z,8.77
2019-05-01T20:39:04.521Z,8.53
2019-05-01T20:41:10.304Z,8.00
2019-05-01T20:43:13.518Z,8.53
2019-05-01T20:45:18.357Z,9.10
2019-05-01T20:47:34.415Z,8.23
2019-05-01T20:49:28.169Z,8.13
2019-05-01T20:51:32.110Z,7.87
2019-05-01T20:53:35.785Z,8.80
2019-05-01T20:55:39.950Z,8.43
2019-05-01T20:57:45.274Z,7.40
2019-05-01T20:59:48.948Z,8.27
2019-05-01T21:01:52.855Z,8.40
2019-05-01T21:04:15.971Z,7.63
2019-05-01T21:06:21.740Z,8.37
2019-05-01T21:08:29.033Z,7.90
2019-05-01T21:10:51.071Z,8.70
2019-05-01T21:12:54.803Z,8.57
2019-05-01T21:14:58.415Z,9.13
2019-05-01T21:17:02.263Z,8.47
2019-05-01T21:19:05.864Z,8.87
2019-05-01T21:21:09.531Z,9.17
2019-05-01T21:23:14.392Z,8.47
2019-05-01T21:25:18.402Z,8.40
2019-05-01T21:27:24.213Z,8.87
2019-05-01T21:29:27.870Z,8.20
2019-05-01T21:31:31.428Z,9.20
2019-05-01T21:33:35.216Z,8.43
2019-05-01T21:35:38.873Z,7.90
2019-05-01T21:37:42.597Z,9.57
2019-05-01T21:39:46.581Z,8.63
2019-05-01T21:41:50.229Z,8.27
2019-05-01T21:43:54.450Z,8.50
2019-05-01T21:45:58.305Z,9.00
2019-05-01T21:48:03.083Z,8.40
2019-05-01T21:50:07.113Z,8.07
2019-05-01T21:52:10.690Z,8.43
2019-05-01T21:54:15.970Z,8.30
2019-05-01T21:56:19.978Z,8.73
2019-05-01T21:58:28.281Z,8.87
2019-05-01T22:00:30.794Z,9.63
2019-05-01T22:02:34.498Z,8.77
2019-05-01T22:04:38.111Z,9.30
2019-05-01T22:06:46.628Z,9.60
2019-05-01T22:08:47.322Z,10.47
2019-05-01T22:10:52.300Z,9.60
2019-05-01T22:12:56.250Z,11.60
2019-05-01T22:15:01.674Z,11.83
2019-05-01T22:17:06.910Z,10.40
2019-05-01T22:19:21.608Z,9.87
2019-05-01T22:21:43.353Z,9.20
2019-05-01T22:23:57.400Z,9.27
2019-05-01T22:26:02.234Z,10.00
2019-05-01T22:28:07.631Z,9.00
2019-05-01T22:30:24.542Z,9.37
2019-05-01T22:32:35.894Z,10.00
2019-05-01T22:34:53.032Z,9.97
2019-05-01T22:36:56.803Z,8.77
2019-05-01T22:39:02.265Z,9.20
2019-05-01T22:41:10.420Z,9.10
2019-05-01T22:43:14.075Z,9.07
2019-05-01T22:45:20.793Z,10.27
2019-05-01T22:47:24.509Z,10.57
2019-05-01T22:49:28.264Z,10.10
2019-05-01T22:51:31.921Z,9.80
2019-05-01T22:53:35.579Z,9.17
2019-05-01T22:55:39.268Z,11.10
2019-05-01T22:57:42.875Z,11.43
2019-05-01T22:59:46.443Z,9.63
2019-05-01T23:01:52.946Z,10.53
2019-05-01T23:03:58.935Z,10.50
2019-05-01T23:06:06.330Z,10.50
2019-05-01T23:08:08.336Z,9.70
2019-05-01T23:10:12.573Z,10.00
2019-05-01T23:12:16.279Z,9.60
2019-05-01T23:14:20.176Z,9.43
2019-05-01T23:16:28.685Z,10.33
2019-05-01T23:18:30.853Z,10.17
2019-05-01T23:20:34.711Z,11.40
2019-05-01T23:22:39.941Z,10.70
2019-05-01T23:24:43.692Z,10.00
2019-05-01T23:26:48.070Z,10.30
2019-05-01T23:28:52.786Z,10.37
2019-05-01T23:30:56.567Z,9.93
2019-05-01T23:33:00.300Z,12.30
2019-05-01T23:35:05.239Z,13.03
2019-05-01T23:37:08.861Z,13.57
2019-05-01T23:39:13.787Z,12.20
2019-05-01T23:41:17.477Z,11.07
2019-05-01T23:43:23.103Z,10.20
2019-05-01T23:45:27.764Z,9.90
2019-05-01T23:47:31.549Z,10.50
2019-05-01T23:49:35.145Z,8.90
2019-05-01T23:51:38.772Z,9.57
2019-05-01T23:53:47.736Z,9.03
2019-05-01T23:55:47.731Z,8.83
2019-05-01T23:57:51.408Z,9.60
2019-05-01T23:59:55.240Z,9.43
